Time;durP1;ratioP1;P1;durP2;ratioP2;P2;SDS_P1;SDS_P2;PMS_P1;PMS_P2;Temp;Humidity;BMP_temperature;BMP_pressure;BME280_temperature;BME280_humidity;BME280_pressure;Samples;Min_cycle;Max_cycle;Signal;HPM_P1;HPM_P2
2021/08/07 00:02:13;;;;;;;1.40;1.30;;;28.10;96.40;;;;;;5019117;28;20462;-42
2021/08/07 00:04:44;;;;;;;1.67;1.40;;;27.80;97.40;;;;;;5025525;28;20509;-43
2021/08/07 00:07:17;;;;;;;2.00;1.90;;;27.60;97.80;;;;;;5038240;28;20516;-42
2021/08/07 00:09:48;;;;;;;1.10;1.10;;;27.60;98.70;;;;;;5038645;28;20449;-43
2021/08/07 00:12:19;;;;;;;1.83;1.30;;;27.50;98.20;;;;;;5039172;28;20465;-42
2021/08/07 00:14:50;;;;;;;2.17;1.60;;;27.40;98.20;;;;;;5038722;28;20452;-42
2021/08/07 00:17:21;;;;;;;1.30;1.20;;;27.30;98.40;;;;;;5038929;28;20481;-43
2021/08/07 00:19:51;;;;;;;1.57;1.33;;;27.20;99.00;;;;;;5038568;28;20478;-43
2021/08/07 00:22:24;;;;;;;2.03;1.70;;;27.00;98.90;;;;;;5037811;28;20458;-42
2021/08/07 00:24:55;;;;;;;2.57;2.00;;;27.10;99.90;;;;;;5038938;28;20477;-42
2021/08/07 00:27:26;;;;;;;1.97;1.87;;;27.10;99.90;;;;;;5038927;28;20481;-43
2021/08/07 00:29:57;;;;;;;2.50;1.50;;;27.20;99.90;;;;;;5029071;28;20579;-43
2021/08/07 00:32:29;;;;;;;2.10;1.63;;;27.20;99.80;;;;;;5037814;28;20552;-43
2021/08/07 00:35:00;;;;;;;2.63;1.93;;;27.30;99.50;;;;;;5037868;28;20491;-43
2021/08/07 00:37:32;;;;;;;1.80;1.63;;;27.50;99.00;;;;;;5038662;28;20591;-43
2021/08/07 00:40:05;;;;;;;2.80;1.20;;;27.50;99.80;;;;;;5053598;28;20484;-43
2021/08/07 00:42:36;;;;;;;2.00;1.60;;;27.50;99.60;;;;;;5038169;28;20505;-43
2021/08/07 00:45:08;;;;;;;1.80;1.33;;;27.50;99.30;;;;;;5041875;28;20448;-43
2021/08/07 00:47:40;;;;;;;1.27;1.17;;;27.40;98.90;;;;;;5043642;27;21168;-44
2021/08/07 00:50:13;;;;;;;1.57;1.47;;;27.30;99.00;;;;;;5043390;28;20461;-43
2021/08/07 00:52:46;;;;;;;1.27;1.27;;;27.20;99.30;;;;;;5039275;28;20492;-43
2021/08/07 00:55:17;;;;;;;1.53;1.43;;;27.20;98.90;;;;;;5040952;28;20513;-43
2021/08/07 00:57:48;;;;;;;1.33;1.20;;;27.10;98.90;;;;;;5042089;28;20453;-43
2021/08/07 01:00:19;;;;;;;1.37;1.07;;;26.80;99.60;;;;;;5041206;28;20820;-44
2021/08/07 01:02:58;;;;;;;1.10;0.90;;;26.70;99.80;;;;;;5042132;28;20472;-44
2021/08/07 01:05:37;;;;;;;2.00;1.40;;;26.60;99.70;;;;;;5040984;28;20963;-42
2021/08/07 01:08:17;;;;;;;1.17;1.17;;;26.60;99.80;;;;;;5042498;28;20499;-42
2021/08/07 01:10:57;;;;;;;2.20;1.20;;;26.60;99.70;;;;;;5035168;28;20460;-42
2021/08/07 01:13:33;;;;;;;1.60;1.50;;;26.70;99.60;;;;;;5021499;28;20471;-42
2021/08/07 01:16:07;;;;;;;1.57;1.30;;;26.70;99.40;;;;;;5024865;28;20496;-42
2021/08/07 01:18:40;;;;;;;1.80;1.70;;;26.80;99.90;;;;;;5041856;28;20487;-42
2021/08/07 01:21:19;;;;;;;3.00;1.20;;;26.80;99.90;;;;;;5040543;28;20512;-43
2021/08/07 01:23:55;;;;;;;1.97;1.73;;;26.80;99.90;;;;;;5041777;28;20454;-43
2021/08/07 01:26:32;;;;;;;1.30;1.20;;;26.70;99.90;;;;;;5040464;28;20452;-44
2021/08/07 01:29:05;;;;;;;1.60;1.50;;;26.70;99.90;;;;;;5041948;28;20506;-43
2021/08/07 01:31:37;;;;;;;2.70;1.50;;;26.80;99.90;;;;;;5040927;28;20481;-43
2021/08/07 01:34:09;;;;;;;3.90;1.60;;;26.90;99.90;;;;;;5041372;28;20532;-43
2021/08/07 01:36:40;;;;;;;1.87;1.60;;;27.00;99.90;;;;;;5040228;28;20446;-43
2021/08/07 01:39:11;;;;;;;2.10;2.00;;;26.80;99.90;;;;;;5041336;28;20563;-43
2021/08/07 01:41:42;;;;;;;2.73;2.03;;;26.80;99.90;;;;;;5040951;28;20522;-43
2021/08/07 01:44:15;;;;;;;2.10;2.00;;;26.60;99.90;;;;;;5044573;28;20453;-41
2021/08/07 01:46:52;;;;;;;1.90;1.80;;;26.50;99.90;;;;;;5040083;28;20461;-42
2021/08/07 01:49:31;;;;;;;2.27;1.97;;;26.40;99.90;;;;;;5035602;28;20842;-42
2021/08/07 01:52:10;;;;;;;2.70;2.50;;;26.20;99.90;;;;;;5035493;28;20749;-42
2021/08/07 01:54:47;;;;;;;2.83;2.63;;;26.00;99.90;;;;;;5041483;28;20506;-42
2021/08/07 01:57:22;;;;;;;2.60;2.43;;;25.90;99.90;;;;;;5040882;28;20457;-42
2021/08/07 01:59:55;;;;;;;2.50;2.30;;;25.90;99.90;;;;;;5031172;28;20495;-43
2021/08/07 02:02:28;;;;;;;2.00;1.80;;;25.90;99.90;;;;;;5044672;28;20479;-43
2021/08/07 02:05:00;;;;;;;1.80;1.70;;;26.00;99.90;;;;;;5046310;28;20515;-42
2021/08/07 02:07:32;;;;;;;3.53;2.47;;;26.00;99.90;;;;;;5029825;28;20561;-41
2021/08/07 02:10:06;;;;;;;2.50;2.40;;;26.00;99.90;;;;;;5042408;28;20464;-42
2021/08/07 02:12:37;;;;;;;2.40;2.20;;;25.80;99.90;;;;;;5040477;28;21031;-43
2021/08/07 02:15:11;;;;;;;2.10;2.00;;;25.60;99.90;;;;;;5042450;28;20493;-42
2021/08/07 02:17:43;;;;;;;2.30;2.17;;;25.60;99.90;;;;;;5039878;28;20501;-42
2021/08/07 02:20:16;;;;;;;3.03;2.20;;;25.60;99.90;;;;;;5040494;28;20455;-42
2021/08/07 02:22:50;;;;;;;2.57;2.47;;;25.60;99.90;;;;;;5041358;28;20449;-42
2021/08/07 02:25:23;;;;;;;2.63;2.37;;;25.40;99.90;;;;;;5038611;28;20461;-42
2021/08/07 02:27:54;;;;;;;2.40;2.03;;;25.30;99.90;;;;;;5033914;28;20519;-42
2021/08/07 02:30:28;;;;;;;2.67;2.47;;;25.20;99.90;;;;;;5021202;28;20482;-42
2021/08/07 02:32:59;;;;;;;1.87;1.77;;;25.20;99.90;;;;;;5030992;28;20509;-41
2021/08/07 02:35:32;;;;;;;2.10;2.00;;;25.10;99.90;;;;;;5023458;28;22358;-41
2021/08/07 02:38:03;;;;;;;2.40;2.30;;;25.00;99.90;;;;;;5024010;28;20477;-42
2021/08/07 02:40:35;;;;;;;2.20;2.10;;;24.80;99.90;;;;;;5031042;28;20482;-40
2021/08/07 02:43:07;;;;;;;2.10;2.00;;;24.80;99.90;;;;;;5039360;28;20461;-42
2021/08/07 02:45:40;;;;;;;2.10;2.00;;;24.60;99.90;;;;;;5040193;28;20482;-43
2021/08/07 02:48:12;;;;;;;1.60;1.50;;;24.60;99.90;;;;;;5034868;28;20564;-43
2021/08/07 02:50:44;;;;;;;1.93;1.73;;;24.50;99.90;;;;;;5038939;28;20449;-43
2021/08/07 02:53:15;;;;;;;2.23;2.03;;;24.40;99.90;;;;;;5040971;28;20509;-42
2021/08/07 02:55:47;;;;;;;1.90;1.80;;;24.40;99.90;;;;;;5040203;28;20457;-43
2021/08/07 02:58:18;;;;;;;2.10;2.00;;;24.30;99.90;;;;;;5024240;28;20485;-43
2021/08/07 03:00:51;;;;;;;2.43;2.10;;;24.30;99.90;;;;;;5034946;28;20461;-43
2021/08/07 03:03:23;;;;;;;2.10;2.00;;;24.20;99.90;;;;;;5040241;28;20481;-42
2021/08/07 03:05:54;;;;;;;1.90;1.80;;;24.10;99.90;;;;;;5026869;28;20451;-42
2021/08/07 03:08:25;;;;;;;2.60;1.83;;;24.00;99.90;;;;;;5039168;28;20501;-42
2021/08/07 03:10:58;;;;;;;2.43;2.23;;;23.90;99.90;;;;;;5040632;27;20490;-42
2021/08/07 03:13:29;;;;;;;2.23;2.13;;;23.90;99.90;;;;;;5088900;27;20471;-42
2021/08/07 03:16:02;;;;;;;1.90;1.80;;;23.80;99.90;;;;;;5052803;28;20438;-41
2021/08/07 03:18:35;;;;;;;1.77;1.67;;;23.70;99.90;;;;;;5043990;27;20457;-42
2021/08/07 03:21:06;;;;;;;1.90;1.80;;;23.70;99.90;;;;;;5039498;28;20467;-44
2021/08/07 03:23:37;;;;;;;1.60;1.50;;;23.50;99.90;;;;;;5035617;28;20409;-43
2021/08/07 03:26:07;;;;;;;1.50;1.40;;;23.40;99.90;;;;;;5041509;28;20446;-43
2021/08/07 03:28:38;;;;;;;2.27;1.53;;;23.20;99.90;;;;;;5072811;27;20472;-42
2021/08/07 03:31:11;;;;;;;1.80;1.70;;;23.20;99.90;;;;;;5033359;28;20559;-43
2021/08/07 03:33:43;;;;;;;2.10;2.00;;;23.00;99.90;;;;;;5039689;28;20430;-42
2021/08/07 03:36:14;;;;;;;1.37;1.30;;;22.90;99.90;;;;;;5038490;28;20416;-43
2021/08/07 03:38:45;;;;;;;1.73;1.57;;;22.90;99.90;;;;;;5023859;28;20460;-42
2021/08/07 03:41:16;;;;;;;2.00;1.80;;;22.80;99.90;;;;;;5024558;28;20478;-42
2021/08/07 03:43:47;;;;;;;1.63;1.53;;;22.70;99.90;;;;;;5039459;28;20485;-38
2021/08/07 03:46:20;;;;;;;1.40;1.30;;;22.70;99.90;;;;;;5039189;28;20450;-43
2021/08/07 03:48:51;;;;;;;1.43;1.33;;;22.60;99.90;;;;;;5047855;28;20484;-41
2021/08/07 03:51:22;;;;;;;1.50;1.40;;;22.50;99.90;;;;;;5038738;28;20441;-43
2021/08/07 03:53:53;;;;;;;3.70;1.70;;;22.40;99.90;;;;;;5032450;28;20431;-42
2021/08/07 03:56:24;;;;;;;1.80;1.70;;;22.40;99.90;;;;;;5038964;28;20431;-41
2021/08/07 03:58:55;;;;;;;1.80;1.47;;;22.30;99.90;;;;;;5042078;28;20425;-39
2021/08/07 04:01:28;;;;;;;1.83;1.10;;;22.30;99.90;;;;;;5041491;28;20446;-41
2021/08/07 04:03:59;;;;;;;1.70;1.50;;;22.20;99.90;;;;;;5043426;28;20457;-42
2021/08/07 04:06:30;;;;;;;1.50;1.40;;;22.20;99.90;;;;;;5050351;28;20423;-42
2021/08/07 04:09:01;;;;;;;1.40;1.30;;;22.10;99.90;;;;;;5039609;28;20485;-42
2021/08/07 04:11:32;;;;;;;1.60;1.50;;;21.90;99.90;;;;;;5041698;28;20420;-42
2021/08/07 04:14:03;;;;;;;1.47;1.37;;;21.90;99.90;;;;;;5038944;28;20546;-42
2021/08/07 04:16:38;;;;;;;1.40;1.30;;;21.80;99.90;;;;;;5033180;28;20578;-42
2021/08/07 04:19:09;;;;;;;1.33;1.23;;;21.80;99.90;;;;;;5040344;28;20471;-41
2021/08/07 04:21:40;;;;;;;1.80;1.60;;;21.80;99.90;;;;;;5041823;28;20982;-41
2021/08/07 04:24:11;;;;;;;1.70;1.23;;;21.70;99.90;;;;;;5049609;28;20427;-42
2021/08/07 04:26:42;;;;;;;1.90;1.37;;;21.70;99.90;;;;;;5044990;28;20449;-44
2021/08/07 04:29:12;;;;;;;1.90;1.70;;;21.60;99.90;;;;;;5089963;27;20516;-43
2021/08/07 04:31:46;;;;;;;1.57;1.47;;;21.50;99.90;;;;;;5064133;27;20519;-43
2021/08/07 04:34:17;;;;;;;1.70;1.60;;;21.40;99.90;;;;;;5041758;28;20533;-42
2021/08/07 04:36:48;;;;;;;1.50;1.40;;;21.50;99.90;;;;;;5041293;28;20446;-42
2021/08/07 04:39:19;;;;;;;1.40;1.30;;;21.40;99.90;;;;;;5047583;28;20420;-41
2021/08/07 04:41:50;;;;;;;1.50;1.40;;;21.40;99.90;;;;;;5044197;28;20464;-43
2021/08/07 04:44:21;;;;;;;1.27;1.17;;;21.30;99.90;;;;;;5043094;28;20449;-41
2021/08/07 04:46:54;;;;;;;1.80;1.40;;;21.30;99.90;;;;;;5042779;28;20505;-41
2021/08/07 04:49:24;;;;;;;1.53;1.43;;;21.30;99.90;;;;;;5041815;28;20493;-43
2021/08/07 04:51:56;;;;;;;1.40;1.30;;;21.20;99.90;;;;;;5041458;28;20457;-41
2021/08/07 04:54:26;;;;;;;1.30;1.20;;;21.20;99.90;;;;;;5044982;28;20458;-41
2021/08/07 04:56:58;;;;;;;1.90;1.20;;;21.20;99.90;;;;;;5042028;28;20449;-41
2021/08/07 04:59:29;;;;;;;1.10;1.10;;;21.20;99.90;;;;;;5042317;28;20775;-42
2021/08/07 05:02:01;;;;;;;1.60;1.10;;;21.10;99.90;;;;;;5041868;28;20428;-41
2021/08/07 05:04:32;;;;;;;1.00;1.00;;;21.10;99.90;;;;;;5030969;28;20450;-42
2021/08/07 05:07:03;;;;;;;1.17;1.07;;;21.10;99.90;;;;;;5041357;28;20459;-42
2021/08/07 05:09:34;;;;;;;1.00;1.00;;;21.00;99.90;;;;;;5041815;28;20517;-42
2021/08/07 05:12:06;;;;;;;2.00;1.17;;;21.00;99.90;;;;;;5041757;28;20537;-40
2021/08/07 05:14:37;;;;;;;1.40;1.23;;;20.90;99.90;;;;;;5045118;28;20460;-42
2021/08/07 05:17:09;;;;;;;1.27;1.00;;;20.80;99.90;;;;;;5041553;28;20469;-39
2021/08/07 05:19:41;;;;;;;1.20;1.10;;;20.80;99.90;;;;;;5041936;28;20533;-42
2021/08/07 05:22:12;;;;;;;3.50;1.17;;;20.70;99.90;;;;;;5041048;28;20421;-39
2021/08/07 05:24:43;;;;;;;1.17;1.17;;;20.70;99.90;;;;;;5041025;28;20480;-41
2021/08/07 05:27:14;;;;;;;1.60;1.50;;;20.70;99.90;;;;;;5028975;28;20425;-39
2021/08/07 05:32:36;;;;;;;1.20;1.10;;;20.50;99.90;;;;;;5041316;28;20575;-41
2021/08/07 05:35:08;;;;;;;2.30;1.30;;;20.60;99.90;;;;;;5045599;28;20420;-41
2021/08/07 05:37:42;;;;;;;1.90;1.50;;;20.50;99.90;;;;;;5032882;28;20473;-38
2021/08/07 05:40:14;;;;;;;1.83;1.67;;;20.50;99.90;;;;;;5044581;28;20811;-43
2021/08/07 05:42:45;;;;;;;1.00;1.00;;;20.40;99.90;;;;;;5040958;28;20499;-43
2021/08/07 05:45:16;;;;;;;1.40;1.30;;;20.40;99.90;;;;;;5039600;28;20441;-40
2021/08/07 05:47:49;;;;;;;1.37;1.27;;;20.30;99.90;;;;;;5039897;28;20493;-41
2021/08/07 05:50:21;;;;;;;1.43;1.33;;;20.20;99.90;;;;;;5039212;28;20488;-41
2021/08/07 05:52:52;;;;;;;2.30;1.20;;;20.20;99.90;;;;;;5041540;28;20509;-43
2021/08/07 05:55:23;;;;;;;1.40;1.30;;;20.20;99.90;;;;;;5030383;28;20466;-43
2021/08/07 05:57:54;;;;;;;2.97;1.10;;;20.20;99.90;;;;;;5045768;28;20456;-43
2021/08/07 06:00:25;;;;;;;2.20;1.47;;;20.10;99.90;;;;;;5048358;28;20458;-43
2021/08/07 06:02:58;;;;;;;1.33;1.23;;;20.00;99.90;;;;;;5054861;28;20449;-41
2021/08/07 06:05:29;;;;;;;2.07;1.43;;;20.00;99.90;;;;;;5023698;28;21004;-41
2021/08/07 06:08:00;;;;;;;1.73;1.63;;;19.90;99.90;;;;;;5041479;28;20561;-41
2021/08/07 06:10:31;;;;;;;1.77;1.67;;;19.90;99.90;;;;;;5040389;28;20578;-42
2021/08/07 06:13:02;;;;;;;1.40;1.30;;;19.80;99.90;;;;;;5036539;28;20449;-41
2021/08/07 06:15:33;;;;;;;1.30;1.20;;;19.70;99.90;;;;;;5031282;28;20450;-42
2021/08/07 06:18:06;;;;;;;2.20;1.10;;;19.70;99.90;;;;;;5041316;28;20627;-42
2021/08/07 06:20:37;;;;;;;1.30;1.20;;;19.60;99.90;;;;;;5042072;28;20484;-44
2021/08/07 06:23:08;;;;;;;1.40;1.30;;;19.60;99.90;;;;;;5041573;28;20472;-39
2021/08/07 06:25:40;;;;;;;1.63;1.53;;;19.50;99.90;;;;;;5039258;28;20485;-44
2021/08/07 06:28:11;;;;;;;1.40;1.30;;;19.50;99.90;;;;;;5043374;28;20484;-43
2021/08/07 06:31:05;;;;;;;1.40;1.30;;;19.40;99.90;;;;;;5041736;28;20495;-43
2021/08/07 06:33:39;;;;;;;4.17;1.60;;;19.40;99.90;;;;;;5044289;28;20467;-41
2021/08/07 06:36:10;;;;;;;1.80;1.63;;;19.40;99.90;;;;;;5044730;28;20576;-42
2021/08/07 06:38:44;;;;;;;1.40;1.30;;;19.30;99.90;;;;;;5042454;28;20427;-43
2021/08/07 06:41:15;;;;;;;1.63;1.53;;;19.30;99.90;;;;;;5043565;28;20464;-41
2021/08/07 06:43:45;;;;;;;1.50;1.40;;;19.20;99.90;;;;;;5047258;28;20544;-43
2021/08/07 06:46:16;;;;;;;1.30;1.20;;;19.10;99.90;;;;;;5041862;28;20450;-42
2021/08/07 06:48:49;;;;;;;1.50;1.40;;;19.10;99.90;;;;;;5040037;28;20471;-41
2021/08/07 06:51:20;;;;;;;1.40;1.30;;;19.10;99.90;;;;;;5038992;28;20489;-41
2021/08/07 06:53:51;;;;;;;1.50;1.40;;;19.10;99.90;;;;;;5041605;28;20420;-43
2021/08/07 06:56:22;;;;;;;1.30;1.00;;;19.10;99.90;;;;;;5034712;28;20475;-41
2021/08/07 06:58:53;;;;;;;2.40;1.97;;;19.10;99.90;;;;;;5045428;28;20435;-42
2021/08/07 07:01:25;;;;;;;1.40;1.30;;;19.00;99.90;;;;;;5045454;28;20456;-42
2021/08/07 07:03:58;;;;;;;1.63;1.50;;;18.90;99.90;;;;;;5048491;28;20440;-41
2021/08/07 07:06:29;;;;;;;1.83;1.30;;;18.90;99.90;;;;;;5019113;28;20438;-43
2021/08/07 07:09:00;;;;;;;1.43;1.33;;;18.90;99.90;;;;;;5044249;28;20451;-41
2021/08/07 07:11:31;;;;;;;1.43;1.33;;;18.90;99.90;;;;;;5039642;28;20500;-38
2021/08/07 07:14:02;;;;;;;1.70;1.60;;;18.90;99.90;;;;;;5041506;28;20439;-41
2021/08/07 07:16:33;;;;;;;1.87;1.43;;;18.80;99.90;;;;;;5039235;28;20449;-42
2021/08/07 07:19:06;;;;;;;1.73;1.33;;;18.80;99.90;;;;;;5040087;28;20464;-41
2021/08/07 07:21:37;;;;;;;1.40;1.30;;;18.70;99.90;;;;;;5022980;28;20457;-42
2021/08/07 07:24:08;;;;;;;1.20;1.10;;;18.70;99.90;;;;;;5040006;28;20441;-41
2021/08/07 07:26:39;;;;;;;2.30;1.63;;;18.60;99.90;;;;;;5030513;28;20489;-42
2021/08/07 07:29:10;;;;;;;1.40;1.30;;;18.60;99.90;;;;;;5051426;28;20497;-41
2021/08/07 07:32:00;;;;;;;1.73;1.63;;;18.50;99.90;;;;;;5039239;28;20583;-41
2021/08/07 07:34:33;;;;;;;2.10;1.90;;;18.50;99.90;;;;;;5040697;28;20500;-42
2021/08/07 07:37:04;;;;;;;1.90;1.80;;;18.40;99.90;;;;;;5040958;28;20451;-42
2021/08/07 07:39:35;;;;;;;2.00;1.90;;;18.40;99.90;;;;;;5044757;28;20461;-41
2021/08/07 07:42:07;;;;;;;1.20;1.10;;;18.40;99.90;;;;;;5040416;28;20469;-39
2021/08/07 07:44:38;;;;;;;1.27;1.17;;;18.40;99.90;;;;;;5043009;28;20457;-42
2021/08/07 07:47:09;;;;;;;2.43;1.47;;;18.40;99.90;;;;;;5039348;28;20509;-41
2021/08/07 07:49:41;;;;;;;2.77;1.50;;;18.30;99.90;;;;;;5048341;28;20449;-41
2021/08/07 07:52:12;;;;;;;1.40;1.30;;;18.30;99.90;;;;;;5041902;28;20477;-40
2021/08/07 07:54:43;;;;;;;1.50;1.40;;;18.20;99.90;;;;;;5042323;28;20465;-41
2021/08/07 07:57:14;;;;;;;3.67;1.87;;;18.20;99.90;;;;;;5050364;28;20448;-40
2021/08/07 07:59:45;;;;;;;1.47;1.37;;;18.10;99.90;;;;;;5052145;28;20467;-42
2021/08/07 08:02:16;;;;;;;1.30;1.20;;;18.10;99.90;;;;;;5049502;28;20484;-40
2021/08/07 08:04:49;;;;;;;1.93;1.40;;;18.10;99.90;;;;;;5044176;28;20477;-41
2021/08/07 08:07:20;;;;;;;1.50;1.40;;;18.00;99.90;;;;;;5041732;28;20512;-40
2021/08/07 08:09:51;;;;;;;2.63;1.47;;;18.10;99.90;;;;;;5055939;28;20434;-40
2021/08/07 08:12:22;;;;;;;1.57;1.47;;;18.00;99.90;;;;;;5042627;28;20445;-40
2021/08/07 08:14:53;;;;;;;1.77;1.40;;;18.00;99.90;;;;;;5046819;28;20487;-40
2021/08/07 08:17:24;;;;;;;1.30;1.20;;;18.00;99.90;;;;;;5104756;27;20476;-40
2021/08/07 08:19:57;;;;;;;1.50;1.40;;;17.90;99.90;;;;;;5052793;27;20453;-41
2021/08/07 08:22:28;;;;;;;1.83;1.73;;;17.90;99.90;;;;;;5099348;27;20517;-42
2021/08/07 08:24:58;;;;;;;1.67;1.57;;;17.90;99.90;;;;;;5042082;28;20423;-41
2021/08/07 08:27:30;;;;;;;2.00;1.60;;;17.80;99.90;;;;;;5035984;28;20469;-40
2021/08/07 08:30:02;;;;;;;1.70;1.50;;;17.80;99.90;;;;;;5041993;28;20449;-41
2021/08/07 08:32:33;;;;;;;2.07;1.87;;;17.80;99.90;;;;;;5042315;28;20446;-41
2021/08/07 08:35:07;;;;;;;1.93;1.57;;;17.80;99.90;;;;;;5042659;28;20449;-40
2021/08/07 08:37:38;;;;;;;4.40;1.97;;;17.90;99.90;;;;;;5041063;28;20453;-41
2021/08/07 08:40:10;;;;;;;1.63;1.53;;;17.80;99.90;;;;;;5042402;28;20442;-41
2021/08/07 08:42:42;;;;;;;1.77;1.60;;;17.80;99.90;;;;;;5042080;28;20508;-40
2021/08/07 08:45:14;;;;;;;1.43;1.33;;;17.80;99.90;;;;;;5042203;28;20453;-40
2021/08/07 08:47:45;;;;;;;1.77;1.60;;;17.70;99.90;;;;;;5041434;28;20483;-41
2021/08/07 08:50:22;;;;;;;1.60;1.50;;;17.70;99.90;;;;;;5042038;28;20473;-40
2021/08/07 08:52:53;;;;;;;1.83;1.73;;;17.60;99.90;;;;;;5042448;28;20449;-39
2021/08/07 08:55:24;;;;;;;1.73;1.63;;;17.60;99.90;;;;;;5041499;28;20490;-40
2021/08/07 08:57:56;;;;;;;2.07;1.97;;;17.50;99.90;;;;;;5039269;28;20481;-40
2021/08/07 09:00:27;;;;;;;1.70;1.60;;;17.60;99.90;;;;;;5041756;28;20453;-41
2021/08/07 09:02:58;;;;;;;1.77;1.67;;;17.50;99.90;;;;;;5041906;28;20489;-40
2021/08/07 09:05:31;;;;;;;2.33;1.30;;;17.40;99.90;;;;;;5040308;28;20457;-41
2021/08/07 09:08:02;;;;;;;1.60;1.50;;;17.40;99.90;;;;;;5041203;28;20509;-41
2021/08/07 09:10:36;;;;;;;1.80;1.60;;;17.40;99.90;;;;;;5042051;28;20879;-42
2021/08/07 09:13:18;;;;;;;1.90;1.80;;;17.40;99.90;;;;;;5041931;28;20959;-41
2021/08/07 09:15:50;;;;;;;2.20;2.00;;;17.40;99.90;;;;;;5040900;28;20472;-40
2021/08/07 09:18:25;;;;;;;2.33;1.73;;;17.40;99.90;;;;;;5041709;28;20521;-41
2021/08/07 09:20:57;;;;;;;1.83;1.73;;;17.40;99.90;;;;;;5040608;28;20476;-40
2021/08/07 09:23:33;;;;;;;2.07;1.87;;;17.40;99.90;;;;;;5041390;28;20440;-42
2021/08/07 09:26:15;;;;;;;2.40;2.20;;;17.40;99.90;;;;;;5036753;28;20456;-40
2021/08/07 09:28:49;;;;;;;2.00;1.67;;;17.30;99.90;;;;;;5030994;28;20603;-40
2021/08/07 09:31:22;;;;;;;1.80;1.67;;;17.30;99.90;;;;;;5041163;28;20481;-39
2021/08/07 09:34:17;;;;;;;3.13;1.93;;;17.40;99.90;;;;;;5041371;28;20424;-40
2021/08/07 09:36:53;;;;;;;1.93;1.83;;;17.30;99.90;;;;;;5025031;28;20457;-41
2021/08/07 09:39:37;;;;;;;2.07;1.93;;;17.30;99.90;;;;;;5041466;28;20453;-41
2021/08/07 09:42:08;;;;;;;4.10;1.87;;;17.30;99.90;;;;;;5041186;28;20473;-39
2021/08/07 09:44:39;;;;;;;1.67;1.57;;;17.20;99.90;;;;;;5041286;28;20458;-41
2021/08/07 09:47:12;;;;;;;2.00;1.90;;;17.30;99.90;;;;;;5040130;28;20481;-41
2021/08/07 09:49:46;;;;;;;2.07;1.57;;;17.20;99.90;;;;;;5041117;28;20453;-39
2021/08/07 09:52:19;;;;;;;1.60;1.50;;;17.10;99.90;;;;;;5039937;28;20513;-39
2021/08/07 09:54:50;;;;;;;1.60;1.50;;;17.10;99.90;;;;;;5040514;28;20457;-40
2021/08/07 09:57:28;;;;;;;2.67;1.90;;;17.10;99.90;;;;;;5024838;28;20495;-40
2021/08/07 09:59:59;;;;;;;2.70;1.77;;;17.10;99.90;;;;;;5041177;28;20481;-40
2021/08/07 10:02:32;;;;;;;2.23;2.03;;;16.90;99.90;;;;;;5040744;28;20523;-40
2021/08/07 10:05:04;;;;;;;2.30;1.90;;;16.90;99.90;;;;;;5040662;28;20934;-42
2021/08/07 10:07:37;;;;;;;1.50;1.40;;;17.00;99.90;;;;;;5039668;28;20533;-37
2021/08/07 10:10:22;;;;;;;1.90;1.80;;;17.00;99.90;;;;;;5040880;28;20457;-40
2021/08/07 10:12:54;;;;;;;1.90;1.80;;;17.10;99.90;;;;;;5040904;28;20445;-40
2021/08/07 10:15:27;;;;;;;1.93;1.83;;;17.00;99.90;;;;;;5041275;28;20458;-39
2021/08/07 10:17:59;;;;;;;2.23;2.13;;;17.00;99.90;;;;;;5040178;28;20993;-40
2021/08/07 10:20:31;;;;;;;2.00;1.80;;;17.00;99.90;;;;;;5045925;28;20492;-39
2021/08/07 10:23:04;;;;;;;2.40;2.20;;;17.00;99.90;;;;;;5051416;28;20583;-40
2021/08/07 10:25:35;;;;;;;1.87;1.73;;;17.00;99.90;;;;;;5035025;28;20485;-38
2021/08/07 10:28:07;;;;;;;1.80;1.70;;;16.90;99.90;;;;;;5025556;28;20456;-38
2021/08/07 10:30:39;;;;;;;2.20;2.00;;;16.90;99.90;;;;;;5034971;28;20513;-40
2021/08/07 10:33:12;;;;;;;2.57;2.10;;;16.90;99.90;;;;;;5041705;28;20453;-39
2021/08/07 10:35:45;;;;;;;2.30;2.10;;;16.90;99.90;;;;;;5028239;28;20474;-41
2021/08/07 10:38:18;;;;;;;2.10;2.00;;;16.90;99.90;;;;;;5041360;28;20472;-38
2021/08/07 10:40:49;;;;;;;2.73;1.90;;;16.90;99.90;;;;;;5039905;28;20457;-40
2021/08/07 10:43:22;;;;;;;2.80;2.03;;;16.90;99.90;;;;;;5040418;28;20531;-40
2021/08/07 10:45:53;;;;;;;2.80;2.60;;;16.90;99.90;;;;;;5046533;28;20626;-41
2021/08/07 10:48:48;;;;;;;1.63;1.53;;;16.90;99.90;;;;;;5048560;28;20457;-41
2021/08/07 10:51:34;;;;;;;3.37;1.90;;;16.90;99.90;;;;;;5051482;28;20453;-39
2021/08/07 10:54:29;;;;;;;1.90;1.80;;;17.00;99.90;;;;;;5039514;28;20488;-40
2021/08/07 10:57:00;;;;;;;1.90;1.80;;;17.10;99.90;;;;;;5028033;28;20469;-38
2021/08/07 10:59:40;;;;;;;2.07;1.90;;;17.20;99.90;;;;;;5048550;28;20503;-40
2021/08/07 11:02:22;;;;;;;2.10;2.00;;;17.20;99.90;;;;;;5042475;28;20530;-42
2021/08/07 11:04:54;;;;;;;2.43;1.70;;;17.20;99.90;;;;;;5040110;28;20514;-40
2021/08/07 11:07:25;;;;;;;1.57;1.47;;;17.30;99.90;;;;;;5039287;28;20494;-40
2021/08/07 11:10:12;;;;;;;2.03;1.93;;;17.20;99.90;;;;;;5045461;28;20489;-39
2021/08/07 11:12:46;;;;;;;2.10;2.00;;;17.20;99.90;;;;;;5047322;28;20551;-40
2021/08/07 11:15:32;;;;;;;3.53;1.80;;;17.30;99.90;;;;;;5042349;28;20449;-40
2021/08/07 11:18:25;;;;;;;2.03;1.93;;;17.30;99.90;;;;;;5045013;28;20537;-40
2021/08/07 11:20:56;;;;;;;1.60;1.43;;;17.30;99.90;;;;;;5044541;28;20445;-39
2021/08/07 11:23:38;;;;;;;2.20;2.00;;;17.30;99.90;;;;;;5044885;28;20622;-40
2021/08/07 11:26:11;;;;;;;1.80;1.70;;;17.30;99.90;;;;;;5038844;28;20480;-39
2021/08/07 11:29:15;;;;;;;2.07;1.77;;;17.30;99.90;;;;;;5046625;28;20452;-40
2021/08/07 11:32:16;;;;;;;2.27;1.70;;;17.30;99.90;;;;;;5060111;28;20601;-40
2021/08/07 11:34:49;;;;;;;1.80;1.70;;;17.40;99.90;;;;;;5066226;28;20472;-40
2021/08/07 11:37:24;;;;;;;1.60;1.50;;;17.40;99.90;;;;;;5065151;28;20464;-40
2021/08/07 11:40:12;;;;;;;1.83;1.63;;;17.40;99.90;;;;;;5064843;28;20484;-40
2021/08/07 11:42:52;;;;;;;1.90;1.80;;;17.50;99.90;;;;;;5059237;28;20661;-39
2021/08/07 11:45:24;;;;;;;2.10;2.00;;;17.40;99.90;;;;;;5061746;28;20535;-39
2021/08/07 11:47:56;;;;;;;2.20;2.00;;;17.40;99.90;;;;;;5067831;28;20513;-40
2021/08/07 11:50:27;;;;;;;1.83;1.73;;;17.40;99.90;;;;;;5060428;28;20504;-40
2021/08/07 11:52:58;;;;;;;2.07;1.90;;;17.40;99.90;;;;;;5059778;28;20997;-40
2021/08/07 11:55:34;;;;;;;2.40;1.83;;;17.30;99.90;;;;;;5061742;28;20578;-40
2021/08/07 11:58:08;;;;;;;2.00;1.80;;;17.30;99.90;;;;;;5068963;28;20558;-40
2021/08/07 12:00:40;;;;;;;1.97;1.87;;;17.20;99.90;;;;;;5059373;28;20491;-40
2021/08/07 12:03:14;;;;;;;1.77;1.67;;;17.20;99.90;;;;;;5049289;28;20485;-39
2021/08/07 12:05:54;;;;;;;2.33;2.07;;;17.20;99.90;;;;;;5038103;28;20744;-39
2021/08/07 12:08:26;;;;;;;2.43;2.23;;;17.20;99.90;;;;;;5039687;28;20557;-40
2021/08/07 12:10:59;;;;;;;3.13;2.50;;;17.10;99.90;;;;;;5050818;28;20455;-40
2021/08/07 12:13:33;;;;;;;1.87;1.77;;;17.00;99.90;;;;;;5039147;28;20453;-40
2021/08/07 12:16:06;;;;;;;2.30;2.10;;;17.00;99.90;;;;;;5044142;28;20502;-40
2021/08/07 12:18:41;;;;;;;2.07;1.87;;;16.90;99.90;;;;;;5045098;28;20457;-39
2021/08/07 12:21:13;;;;;;;2.60;2.40;;;16.90;99.90;;;;;;5039373;28;20457;-40
2021/08/07 12:23:48;;;;;;;1.90;1.80;;;17.00;99.90;;;;;;5046138;28;20977;-41
2021/08/07 12:26:20;;;;;;;2.73;2.00;;;16.90;99.90;;;;;;5041350;28;20473;-40
2021/08/07 12:28:59;;;;;;;2.10;1.90;;;16.70;99.90;;;;;;5045421;28;20456;-38
2021/08/07 12:34:39;;;;;;;1.73;1.63;;;16.70;99.90;;;;;;5040417;28;20449;-39
2021/08/07 12:37:11;;;;;;;2.47;2.27;;;16.60;99.90;;;;;;5040591;28;20521;-40
2021/08/07 12:39:45;;;;;;;2.70;2.50;;;16.60;99.90;;;;;;5023371;28;20524;-40
2021/08/07 12:42:17;;;;;;;2.30;2.10;;;16.60;99.90;;;;;;5046401;28;20524;-40
2021/08/07 12:45:01;;;;;;;2.67;2.47;;;16.60;99.90;;;;;;5042254;28;20457;-40
2021/08/07 12:47:34;;;;;;;3.13;2.30;;;16.70;99.90;;;;;;5027401;28;20449;-40
2021/08/07 12:50:11;;;;;;;1.93;1.80;;;16.60;99.90;;;;;;5028470;28;20560;-41
2021/08/07 12:52:51;;;;;;;2.67;2.47;;;16.60;99.90;;;;;;5034634;28;20890;-39
2021/08/07 12:55:22;;;;;;;2.93;2.53;;;16.50;99.90;;;;;;5038653;28;20450;-39
2021/08/07 12:58:11;;;;;;;2.60;2.40;;;16.50;99.90;;;;;;5042252;28;20453;-39
2021/08/07 13:00:44;;;;;;;2.37;2.17;;;16.50;99.90;;;;;;5041266;28;20536;-40
2021/08/07 13:03:15;;;;;;;2.50;2.30;;;16.50;99.90;;;;;;5042019;28;20541;-40
2021/08/07 13:05:46;;;;;;;2.40;2.20;;;16.60;99.90;;;;;;5041050;28;20590;-39
2021/08/07 13:08:29;;;;;;;2.70;2.50;;;16.40;99.90;;;;;;5040727;28;20776;-39
2021/08/07 13:11:13;;;;;;;10.03;2.67;;;16.40;99.90;;;;;;5041456;28;20459;-41
2021/08/07 13:13:45;;;;;;;2.63;2.43;;;16.50;99.90;;;;;;5025965;28;20510;-40
2021/08/07 13:16:42;;;;;;;2.40;2.20;;;16.50;99.90;;;;;;5041014;28;20471;-41
2021/08/07 13:19:20;;;;;;;4.10;1.90;;;16.50;99.90;;;;;;5041666;28;20572;-40
2021/08/07 13:21:52;;;;;;;2.70;2.20;;;16.50;99.90;;;;;;5027953;28;20509;-41
2021/08/07 13:24:30;;;;;;;2.70;2.00;;;16.50;99.90;;;;;;5041871;28;20485;-38
2021/08/07 13:27:03;;;;;;;2.50;2.30;;;16.50;99.90;;;;;;5029349;28;20446;-39